Hingham, Montana
Current Conditions -  °F | °C
As of 1:53 AM on Friday 26 Dec 2014 (Local Time) from KHVR Reporting Station
Overcast Overcast  
Wind Chill: 11°   Ceiling: 11000
Heat Index: 21°   Visibility: 10mi
Dew Point: 18°   Wind: 8mph
Humidity: 88%   Direction: 250°WSW
Pressure: 29.97"   Gusts: NA
Location:  48.55°N, 110.42°W
Report Text: KHVR 260853Z AUTO 25007KT 10SM OVC110 M06/M08 A2997 RMK AO2 SLP184 T10611078 58002
Loading
Personal Weather Stations






























Interactive Weather Map New forecast layout! Learn more

10-Day Weather Forecast

Advertisements
Track Severe Weather on mobile